Time;durP1;ratioP1;P1;durP2;ratioP2;P2;SDS_P1;SDS_P2;PMS_P1;PMS_P2;Temp;Humidity;BMP_temperature;BMP_pressure;BME280_temperature;BME280_humidity;BME280_pressure;Samples;Min_cycle;Max_cycle;Signal;HPM_P1;HPM_P2
2021/09/04 00:01:05;;;;;;;16.20;5.50;;;19.90;99.90;;;;;;6186553;23;20027;-79
2021/09/04 00:03:31;;;;;;;9.00;5.63;;;19.80;99.90;;;;;;6186403;23;20005;-78
2021/09/04 00:05:56;;;;;;;7.68;4.90;;;19.80;99.90;;;;;;6186243;23;20055;-77
2021/09/04 00:08:22;;;;;;;11.68;5.50;;;19.80;99.90;;;;;;6185817;23;20013;-79
2021/09/04 00:10:48;;;;;;;9.95;5.82;;;19.80;99.90;;;;;;6186227;23;20328;-79
2021/09/04 00:13:13;;;;;;;7.47;4.80;;;19.80;99.90;;;;;;6186272;23;20020;-78
2021/09/04 00:15:39;;;;;;;8.10;5.65;;;19.80;99.90;;;;;;6186292;23;19997;-78
2021/09/04 00:18:05;;;;;;;9.27;6.10;;;19.70;99.90;;;;;;6186491;23;20024;-79
2021/09/04 00:20:31;;;;;;;9.30;5.25;;;19.70;99.90;;;;;;6186195;23;20005;-79
2021/09/04 00:22:57;;;;;;;14.73;6.10;;;19.60;99.90;;;;;;6186389;23;20110;-79
2021/09/04 00:25:22;;;;;;;9.88;5.80;;;19.50;99.90;;;;;;6159075;23;20072;-79
2021/09/04 00:27:48;;;;;;;15.80;4.85;;;19.50;99.90;;;;;;6185954;23;20420;-78
2021/09/04 00:30:14;;;;;;;6.90;5.30;;;19.50;99.90;;;;;;6186485;23;20450;-79
2021/09/04 00:32:40;;;;;;;9.25;5.65;;;19.50;99.90;;;;;;6185920;23;20336;-79
2021/09/04 00:35:07;;;;;;;8.02;5.30;;;19.50;99.90;;;;;;6185835;23;19997;-79
2021/09/04 00:37:33;;;;;;;6.93;5.07;;;19.50;99.90;;;;;;6186090;23;20005;-79
2021/09/04 00:39:59;;;;;;;6.90;5.30;;;19.50;99.90;;;;;;6185955;23;20085;-78
2021/09/04 00:42:24;;;;;;;10.77;5.15;;;19.60;99.90;;;;;;6185930;23;20401;-79
2021/09/04 00:44:50;;;;;;;6.97;5.10;;;19.70;99.90;;;;;;6186027;23;20443;-79
2021/09/04 00:47:16;;;;;;;12.43;4.80;;;19.70;99.90;;;;;;6185925;23;20012;-79
2021/09/04 00:49:42;;;;;;;7.75;5.10;;;19.70;99.90;;;;;;6159639;23;20055;-79
2021/09/04 00:52:08;;;;;;;6.22;4.85;;;19.70;99.90;;;;;;6185368;23;20439;-78
2021/09/04 00:54:35;;;;;;;8.02;5.22;;;19.70;99.90;;;;;;6185949;23;20071;-79
2021/09/04 00:57:01;;;;;;;7.65;4.68;;;19.60;99.90;;;;;;6185775;23;20012;-78
2021/09/04 00:59:27;;;;;;;7.72;5.07;;;19.60;99.90;;;;;;6185983;23;20001;-78
2021/09/04 01:01:53;;;;;;;6.10;4.47;;;19.50;99.90;;;;;;6185788;23;20020;-79
2021/09/04 01:04:21;;;;;;;14.57;5.63;;;19.50;99.90;;;;;;6185828;23;20001;-77
2021/09/04 01:06:48;;;;;;;10.20;5.85;;;19.50;99.90;;;;;;6186681;23;20017;-81
2021/09/04 01:09:15;;;;;;;6.78;5.03;;;19.50;99.90;;;;;;6185912;23;20100;-77
2021/09/04 01:11:41;;;;;;;7.88;5.53;;;19.40;99.90;;;;;;6185758;23;20032;-81
2021/09/04 01:14:07;;;;;;;13.20;5.82;;;19.50;99.90;;;;;;6185673;23;20029;-75
2021/09/04 01:16:35;;;;;;;11.55;6.22;;;19.60;99.90;;;;;;6185996;23;20318;-78
2021/09/04 01:19:00;;;;;;;12.40;8.02;;;19.60;99.90;;;;;;6185707;23;20016;-78
2021/09/04 01:21:26;;;;;;;12.63;7.80;;;19.70;99.90;;;;;;6185442;23;20009;-77
2021/09/04 01:23:52;;;;;;;16.98;6.53;;;19.60;99.90;;;;;;6185700;23;20005;-75
2021/09/04 01:26:17;;;;;;;9.35;4.90;;;19.60;99.90;;;;;;6185953;23;19997;-75
2021/09/04 01:28:43;;;;;;;11.25;5.70;;;19.60;99.90;;;;;;6186307;23;20005;-76
2021/09/04 01:31:09;;;;;;;8.10;5.00;;;19.50;99.90;;;;;;6185689;23;19997;-77
2021/09/04 01:33:44;;;;;;;8.85;5.35;;;19.50;99.90;;;;;;6185554;23;20009;-79
2021/09/04 01:36:12;;;;;;;10.65;5.65;;;19.50;99.90;;;;;;6185576;23;20492;-89
2021/09/04 01:38:38;;;;;;;7.35;4.90;;;19.40;99.90;;;;;;6185696;23;20005;-86
2021/09/04 01:41:03;;;;;;;9.70;5.68;;;19.40;99.90;;;;;;6185563;23;20009;-86
2021/09/04 01:43:29;;;;;;;12.05;4.68;;;19.40;99.90;;;;;;6185406;23;20451;-78
2021/09/04 01:45:55;;;;;;;12.38;5.47;;;19.40;99.90;;;;;;6185848;23;20001;-76
2021/09/04 01:48:21;;;;;;;12.38;5.57;;;19.40;99.90;;;;;;6185485;23;20020;-74
2021/09/04 01:50:47;;;;;;;8.40;4.93;;;19.40;99.90;;;;;;6185589;23;19997;-77
2021/09/04 01:53:12;;;;;;;7.40;4.93;;;19.40;99.90;;;;;;6185810;23;20069;-80
2021/09/04 01:55:38;;;;;;;10.60;5.88;;;19.40;99.90;;;;;;6185821;23;20091;-77
2021/09/04 01:58:04;;;;;;;6.28;4.95;;;19.40;99.90;;;;;;6186113;23;20355;-77
2021/09/04 02:00:29;;;;;;;8.13;5.53;;;19.30;99.90;;;;;;6185523;23;20428;-75
2021/09/04 02:02:55;;;;;;;6.45;4.63;;;19.40;99.90;;;;;;6186934;23;20073;-81
2021/09/04 02:05:21;;;;;;;9.13;5.40;;;19.40;99.90;;;;;;6187364;23;20402;-77
2021/09/04 02:07:46;;;;;;;8.75;4.95;;;19.50;99.90;;;;;;6187390;23;20023;-75
2021/09/04 02:10:12;;;;;;;6.50;4.32;;;19.60;99.90;;;;;;6187775;23;20054;-78
2021/09/04 02:12:38;;;;;;;8.05;5.32;;;19.60;99.90;;;;;;6187924;23;20047;-75
2021/09/04 02:15:06;;;;;;;7.22;5.05;;;19.70;99.90;;;;;;6188421;23;20048;-75
2021/09/04 02:17:32;;;;;;;8.70;5.07;;;19.70;99.90;;;;;;6191991;23;20006;-77
2021/09/04 02:19:58;;;;;;;8.40;4.47;;;19.70;99.90;;;;;;6188714;23;20023;-81
2021/09/04 02:22:23;;;;;;;7.68;4.30;;;19.70;99.90;;;;;;6187191;23;20017;-84
2021/09/04 02:24:49;;;;;;;8.60;5.50;;;19.70;99.90;;;;;;6187280;23;20324;-78
2021/09/04 02:27:15;;;;;;;7.18;4.63;;;19.70;99.90;;;;;;6187459;23;20088;-79
2021/09/04 02:29:41;;;;;;;7.70;4.88;;;19.60;99.90;;;;;;6187580;23;20049;-78
2021/09/04 02:32:07;;;;;;;9.27;4.50;;;19.70;99.90;;;;;;6187322;23;20012;-80
2021/09/04 02:34:33;;;;;;;6.80;4.97;;;19.70;99.90;;;;;;6187297;23;20004;-80
2021/09/04 02:36:58;;;;;;;7.40;4.38;;;19.70;99.90;;;;;;6186907;23;20005;-86
2021/09/04 02:39:24;;;;;;;9.02;5.10;;;19.70;99.90;;;;;;6187620;23;20001;-80
2021/09/04 02:41:50;;;;;;;12.18;4.43;;;19.70;99.90;;;;;;6187511;23;20009;-76
2021/09/04 02:44:15;;;;;;;8.85;5.03;;;19.70;99.90;;;;;;6186980;23;20028;-78
2021/09/04 02:46:41;;;;;;;6.97;4.57;;;19.70;99.90;;;;;;6186866;23;20024;-85
2021/09/04 02:49:07;;;;;;;9.98;4.78;;;19.70;99.90;;;;;;6186824;23;20265;-77
2021/09/04 02:51:32;;;;;;;12.85;4.80;;;19.70;99.90;;;;;;6187092;23;20043;-77
2021/09/04 02:53:58;;;;;;;9.00;4.80;;;19.80;99.90;;;;;;6187124;23;20028;-77
2021/09/04 02:56:24;;;;;;;8.15;5.25;;;19.80;99.90;;;;;;6187311;23;20001;-77
2021/09/04 02:58:49;;;;;;;7.78;4.45;;;19.80;99.90;;;;;;6186797;23;20016;-77
2021/09/04 03:01:15;;;;;;;10.50;4.65;;;19.80;99.90;;;;;;6186883;23;20001;-78
2021/09/04 03:03:40;;;;;;;5.88;4.22;;;19.80;99.90;;;;;;6186911;23;20419;-77
2021/09/04 03:06:06;;;;;;;6.57;4.43;;;19.70;99.90;;;;;;6187071;23;20004;-76
2021/09/04 03:08:33;;;;;;;8.20;5.18;;;19.70;99.90;;;;;;6186573;23;20024;-78
2021/09/04 03:10:59;;;;;;;8.82;4.90;;;19.70;99.90;;;;;;6186933;23;20008;-77
2021/09/04 03:13:25;;;;;;;9.73;4.78;;;19.70;99.90;;;;;;6186622;23;20499;-81
2021/09/04 03:15:51;;;;;;;10.07;4.85;;;19.70;99.90;;;;;;6186526;23;20001;-79
2021/09/04 03:18:16;;;;;;;7.47;4.38;;;19.70;99.90;;;;;;6187416;23;20005;-77
2021/09/04 03:20:42;;;;;;;9.52;4.90;;;19.80;99.90;;;;;;6187166;23;20004;-75
2021/09/04 03:23:08;;;;;;;8.48;5.28;;;19.80;99.90;;;;;;6186697;23;20013;-75
2021/09/04 03:25:33;;;;;;;13.82;5.20;;;19.70;99.90;;;;;;6187050;23;20005;-78
2021/09/04 03:27:59;;;;;;;10.38;5.57;;;19.80;99.90;;;;;;6187185;23;20009;-77
2021/09/04 03:30:25;;;;;;;9.27;4.82;;;19.80;99.90;;;;;;6186795;23;20107;-81
2021/09/04 03:32:51;;;;;;;6.38;4.35;;;19.80;99.90;;;;;;6187235;23;20083;-77
2021/09/04 03:35:16;;;;;;;9.88;4.32;;;19.70;99.90;;;;;;6187111;23;20048;-75
2021/09/04 03:37:42;;;;;;;9.35;5.20;;;19.80;99.90;;;;;;6186840;23;20428;-75
2021/09/04 03:40:08;;;;;;;11.30;4.38;;;19.70;99.90;;;;;;6186830;23;20305;-82
2021/09/04 03:42:34;;;;;;;5.25;4.35;;;19.70;99.90;;;;;;6186597;23;20042;-80
2021/09/04 03:44:59;;;;;;;7.15;4.97;;;19.70;99.90;;;;;;6186349;23;20001;-79
2021/09/04 03:47:26;;;;;;;6.90;4.85;;;19.70;99.90;;;;;;6186634;23;20008;-81
2021/09/04 03:49:51;;;;;;;5.57;4.50;;;19.60;99.90;;;;;;6187115;23;20024;-77
2021/09/04 03:52:17;;;;;;;5.63;4.88;;;19.60;99.90;;;;;;6186379;23;20001;-81
2021/09/04 03:54:43;;;;;;;6.53;4.82;;;19.60;99.90;;;;;;6186750;23;19998;-76
2021/09/04 03:57:08;;;;;;;10.02;5.40;;;19.60;99.90;;;;;;6186489;23;20092;-80
2021/09/04 03:59:34;;;;;;;6.13;4.32;;;19.60;99.90;;;;;;6186248;23;20433;-76
2021/09/04 04:01:59;;;;;;;7.45;5.03;;;19.60;99.90;;;;;;6186157;23;20048;-76
2021/09/04 04:04:25;;;;;;;7.05;4.78;;;19.60;99.90;;;;;;6186305;23;20033;-78
2021/09/04 04:06:51;;;;;;;5.60;4.32;;;19.60;99.90;;;;;;6186219;23;20056;-78
2021/09/04 04:09:17;;;;;;;6.63;4.95;;;19.60;99.90;;;;;;6186090;23;20399;-78
2021/09/04 04:11:42;;;;;;;8.90;4.38;;;19.50;99.90;;;;;;6185876;23;20005;-75
2021/09/04 04:14:08;;;;;;;6.35;4.35;;;19.50;99.90;;;;;;6186409;23;20004;-77
2021/09/04 04:16:33;;;;;;;7.78;4.88;;;19.50;99.90;;;;;;6186257;23;20035;-81
2021/09/04 04:18:59;;;;;;;8.35;4.88;;;19.50;99.90;;;;;;6186164;23;20009;-76
2021/09/04 04:21:25;;;;;;;15.63;5.05;;;19.40;99.90;;;;;;6185778;23;20021;-76
2021/09/04 04:23:50;;;;;;;8.55;4.90;;;19.40;99.90;;;;;;6186451;23;20428;-78
2021/09/04 04:26:16;;;;;;;16.00;4.68;;;19.40;99.90;;;;;;6185663;23;20011;-75
2021/09/04 04:28:42;;;;;;;8.90;4.80;;;19.40;99.90;;;;;;6186131;23;20002;-84
2021/09/04 04:31:07;;;;;;;6.78;4.47;;;19.40;99.90;;;;;;6185869;23;20009;-76
2021/09/04 04:33:33;;;;;;;8.48;5.30;;;19.40;99.90;;;;;;6186061;23;20001;-77
2021/09/04 04:35:58;;;;;;;8.23;5.68;;;19.40;99.90;;;;;;6186368;23;20051;-78
2021/09/04 04:38:24;;;;;;;5.78;4.53;;;19.40;99.90;;;;;;6186007;23;20360;-78
2021/09/04 04:40:50;;;;;;;7.25;5.05;;;19.50;99.90;;;;;;6185745;23;20417;-77
2021/09/04 04:43:16;;;;;;;12.25;5.28;;;19.50;99.90;;;;;;6185933;23;20013;-78
2021/09/04 04:45:42;;;;;;;9.27;4.57;;;19.50;99.90;;;;;;6185874;23;20424;-79
2021/09/04 04:48:07;;;;;;;6.70;4.57;;;19.50;99.90;;;;;;6186027;23;20004;-77
2021/09/04 04:50:33;;;;;;;6.80;4.53;;;19.50;99.90;;;;;;6186209;23;20044;-88
2021/09/04 04:52:59;;;;;;;11.27;4.75;;;19.50;99.90;;;;;;6189238;23;20393;-79
2021/09/04 04:55:25;;;;;;;6.95;4.88;;;19.50;99.90;;;;;;6186244;23;20416;-80
2021/09/04 04:57:51;;;;;;;10.18;5.13;;;19.50;99.90;;;;;;6186486;23;20024;-81
2021/09/04 05:00:17;;;;;;;9.95;5.97;;;19.60;99.90;;;;;;6185680;23;20008;-79
2021/09/04 05:02:43;;;;;;;4.88;4.05;;;19.70;99.90;;;;;;6185822;23;20008;-79
2021/09/04 05:05:10;;;;;;;8.65;4.75;;;19.90;99.90;;;;;;6186009;23;20004;-77
2021/09/04 05:07:36;;;;;;;9.45;4.63;;;20.40;99.90;;;;;;6185241;23;20032;-78
2021/09/04 05:10:02;;;;;;;12.88;4.70;;;21.00;99.90;;;;;;6185737;23;20316;-77
2021/09/04 05:12:28;;;;;;;8.98;4.78;;;21.80;99.90;;;;;;6185703;23;20024;-75
2021/09/04 05:14:54;;;;;;;9.65;5.75;;;22.50;99.90;;;;;;6185852;23;20004;-77
2021/09/04 05:17:19;;;;;;;17.10;4.57;;;22.80;99.90;;;;;;6185641;23;20074;-89
2021/09/04 05:19:45;;;;;;;6.35;4.47;;;23.30;99.10;;;;;;6185603;23;20396;-77
2021/09/04 05:22:11;;;;;;;6.07;4.40;;;23.70;98.20;;;;;;6185254;23;20087;-77
2021/09/04 05:24:36;;;;;;;4.63;4.03;;;24.20;97.10;;;;;;6185684;23;20020;-78
2021/09/04 05:27:02;;;;;;;14.40;5.00;;;24.60;96.50;;;;;;6185446;23;20145;-78
2021/09/04 05:29:30;;;;;;;9.68;5.03;;;24.90;95.90;;;;;;6159150;23;20008;-78
2021/09/04 05:31:56;;;;;;;10.63;4.50;;;24.80;95.60;;;;;;6185532;23;20005;-76
2021/09/04 05:34:21;;;;;;;8.05;4.90;;;24.80;95.30;;;;;;6185363;23;20065;-81
2021/09/04 05:36:47;;;;;;;9.70;4.38;;;24.30;95.70;;;;;;6185654;23;20005;-78
2021/09/04 05:39:13;;;;;;;12.00;4.30;;;24.40;95.80;;;;;;6185377;23;20305;-79
2021/09/04 05:41:39;;;;;;;8.27;4.63;;;24.40;95.40;;;;;;6185218;23;20001;-78
2021/09/04 05:44:04;;;;;;;7.68;4.05;;;24.00;95.90;;;;;;6185277;23;20063;-77
2021/09/04 05:46:30;;;;;;;9.77;4.55;;;23.60;96.40;;;;;;6186234;23;20035;-77
2021/09/04 05:48:56;;;;;;;18.17;4.97;;;23.50;96.60;;;;;;6185781;23;20013;-78
2021/09/04 05:51:21;;;;;;;7.00;4.40;;;24.30;96.10;;;;;;6185457;23;19997;-77
2021/09/04 05:53:47;;;;;;;5.47;4.38;;;25.00;95.30;;;;;;6185206;23;20041;-87
2021/09/04 05:56:13;;;;;;;14.52;4.32;;;26.10;94.20;;;;;;6185338;23;20052;-75
2021/09/04 05:58:39;;;;;;;7.65;5.10;;;27.10;92.70;;;;;;6185573;23;20044;-77
2021/09/04 06:01:06;;;;;;;9.55;4.60;;;27.90;91.80;;;;;;6185370;23;20001;-76
2021/09/04 06:03:31;;;;;;;8.48;4.00;;;27.80;91.00;;;;;;6185080;23;20056;-76
2021/09/04 06:05:57;;;;;;;7.93;4.05;;;28.00;90.60;;;;;;6185357;23;20005;-77
2021/09/04 06:08:24;;;;;;;5.38;3.95;;;29.10;89.30;;;;;;6184900;23;20013;-81
2021/09/04 06:10:50;;;;;;;9.65;4.10;;;30.40;87.00;;;;;;6185177;23;20001;-85
2021/09/04 06:13:16;;;;;;;16.20;4.20;;;31.30;83.60;;;;;;6185418;23;20440;-85
2021/09/04 06:15:42;;;;;;;17.30;4.15;;;31.80;81.90;;;;;;6185646;23;20001;-78
2021/09/04 06:18:08;;;;;;;12.88;4.05;;;32.10;79.70;;;;;;6185391;23;20059;-83
2021/09/04 06:20:33;;;;;;;7.32;4.10;;;32.30;79.70;;;;;;6185634;23;20367;-79
2021/09/04 06:22:59;;;;;;;4.25;3.40;;;32.50;79.00;;;;;;6185378;23;20013;-78
2021/09/04 06:25:25;;;;;;;11.13;4.20;;;33.40;76.40;;;;;;6185525;23;20093;-76
2021/09/04 06:27:50;;;;;;;9.77;3.97;;;33.40;75.00;;;;;;6185436;23;20035;-76
2021/09/04 06:30:16;;;;;;;13.52;3.92;;;34.00;74.40;;;;;;6185469;23;20001;-76
2021/09/04 06:32:42;;;;;;;8.65;3.78;;;34.00;74.20;;;;;;6185155;23;20080;-78
2021/09/04 06:35:08;;;;;;;5.57;3.63;;;34.40;72.80;;;;;;6185508;23;20013;-77
2021/09/04 06:37:34;;;;;;;6.43;3.30;;;35.50;71.80;;;;;;6185384;23;20004;-81
2021/09/04 06:39:59;;;;;;;18.15;3.63;;;36.50;69.70;;;;;;6185853;23;20008;-77
2021/09/04 06:42:25;;;;;;;11.82;3.40;;;37.30;67.70;;;;;;6185367;23;20013;-76
2021/09/04 06:44:51;;;;;;;5.28;3.35;;;37.80;66.40;;;;;;6185374;23;20348;-80
2021/09/04 06:47:16;;;;;;;6.65;3.40;;;38.10;65.50;;;;;;6185431;23;20412;-80
2021/09/04 06:49:42;;;;;;;4.95;3.22;;;37.80;65.20;;;;;;6186183;23;19997;-77
2021/09/04 06:52:08;;;;;;;10.82;4.03;;;37.30;65.10;;;;;;6186834;23;20353;-78
2021/09/04 06:54:33;;;;;;;5.40;3.35;;;36.20;66.20;;;;;;6187360;23;20301;-78
2021/09/04 06:57:00;;;;;;;11.30;3.15;;;35.90;66.60;;;;;;6187021;23;20005;-77
2021/09/04 06:59:26;;;;;;;17.17;3.30;;;35.60;66.90;;;;;;6187247;23;20005;-77
2021/09/04 07:01:52;;;;;;;4.85;3.83;;;36.50;66.20;;;;;;6186753;23;20019;-80
2021/09/04 07:04:18;;;;;;;4.97;3.25;;;36.80;65.00;;;;;;6187252;23;20005;-82
2021/09/04 07:06:43;;;;;;;9.38;3.33;;;37.10;64.00;;;;;;6186957;23;20001;-75
2021/09/04 07:09:09;;;;;;;8.48;3.13;;;37.10;64.10;;;;;;6187041;23;20043;-77
2021/09/04 07:11:35;;;;;;;7.50;3.17;;;37.30;63.40;;;;;;6187051;23;19998;-87
2021/09/04 07:14:00;;;;;;;6.00;3.03;;;38.30;63.30;;;;;;6186987;23;20032;-77
2021/09/04 07:16:26;;;;;;;7.85;2.58;;;39.10;61.60;;;;;;6186676;23;20463;-76
2021/09/04 07:18:52;;;;;;;9.25;3.00;;;39.50;61.00;;;;;;6187187;23;20009;-76
2021/09/04 07:21:17;;;;;;;2.97;2.67;;;40.10;59.80;;;;;;6186598;23;20067;-76
2021/09/04 07:23:43;;;;;;;6.85;3.08;;;39.90;59.30;;;;;;6186539;23;20083;-83
2021/09/04 07:26:09;;;;;;;3.42;2.35;;;39.90;59.20;;;;;;6186730;23;20075;-79
2021/09/04 07:28:34;;;;;;;2.78;2.30;;;40.40;58.80;;;;;;6186932;23;20468;-76
2021/09/04 07:31:00;;;;;;;6.78;2.58;;;40.80;57.70;;;;;;6190020;23;19997;-77
2021/09/04 07:33:27;;;;;;;3.72;2.90;;;40.10;57.60;;;;;;6187142;23;20359;-85
2021/09/04 07:35:53;;;;;;;6.25;2.80;;;39.80;58.20;;;;;;6187152;23;20034;-80
2021/09/04 07:38:18;;;;;;;5.15;2.97;;;39.90;57.80;;;;;;6186983;23;20017;-81
2021/09/04 07:40:45;;;;;;;9.20;3.47;;;39.90;57.50;;;;;;6186547;23;20100;-76
2021/09/04 07:43:11;;;;;;;5.65;3.67;;;39.60;57.90;;;;;;6187028;23;20017;-76
2021/09/04 07:45:37;;;;;;;7.38;4.43;;;40.40;57.50;;;;;;6186673;23;20309;-81
2021/09/04 07:48:04;;;;;;;26.63;14.15;;;40.40;56.80;;;;;;6186331;23;20001;-77
2021/09/04 07:50:30;;;;;;;25.75;13.00;;;40.90;56.80;;;;;;6186612;23;20001;-75
2021/09/04 07:52:56;;;;;;;5.28;4.20;;;41.80;55.90;;;;;;6185957;23;20009;-75
2021/09/04 07:55:21;;;;;;;7.43;3.45;;;40.10;55.50;;;;;;6186683;23;20012;-76
2021/09/04 07:57:47;;;;;;;4.00;2.70;;;39.50;56.70;;;;;;6186216;23;20437;-85
2021/09/04 08:00:13;;;;;;;3.75;2.67;;;39.30;56.80;;;;;;6186902;23;20005;-75
2021/09/04 08:02:39;;;;;;;3.38;2.80;;;39.30;57.00;;;;;;6187038;23;20004;-77
2021/09/04 08:05:05;;;;;;;4.20;2.78;;;39.30;57.10;;;;;;6186809;23;20012;-87
2021/09/04 08:07:31;;;;;;;10.43;2.90;;;39.80;56.90;;;;;;6185933;23;20051;-77
2021/09/04 08:09:57;;;;;;;3.25;2.58;;;38.90;57.00;;;;;;6186661;23;20016;-75
2021/09/04 08:12:23;;;;;;;6.63;2.97;;;39.30;56.90;;;;;;6186283;23;20009;-77
2021/09/04 08:14:49;;;;;;;7.15;2.88;;;39.60;56.40;;;;;;6186271;23;20001;-81
2021/09/04 08:17:14;;;;;;;3.38;2.42;;;39.70;56.10;;;;;;6186211;23;20007;-85
2021/09/04 08:19:40;;;;;;;6.97;2.83;;;39.30;56.50;;;;;;6186314;23;20412;-75
2021/09/04 08:22:06;;;;;;;5.07;2.80;;;39.60;55.90;;;;;;6185665;23;20390;-84
2021/09/04 08:24:32;;;;;;;4.28;2.72;;;39.20;56.10;;;;;;6186594;23;20045;-93
2021/09/04 08:26:58;;;;;;;4.28;3.10;;;39.60;56.50;;;;;;6186609;23;20001;-81
2021/09/04 08:29:24;;;;;;;5.50;2.70;;;40.10;56.20;;;;;;6186246;23;20072;-78
2021/09/04 08:31:50;;;;;;;4.05;2.72;;;41.00;55.40;;;;;;6186479;23;20458;-77
2021/09/04 08:34:16;;;;;;;5.03;2.10;;;41.30;54.20;;;;;;6186500;23;20009;-76
2021/09/04 08:36:43;;;;;;;4.97;2.97;;;40.80;53.80;;;;;;6186678;23;20028;-78
2021/09/04 08:39:08;;;;;;;3.25;2.72;;;40.50;54.40;;;;;;6185895;23;20313;-77
2021/09/04 08:41:36;;;;;;;5.43;2.33;;;40.30;55.00;;;;;;6186280;23;20008;-76
2021/09/04 08:44:03;;;;;;;5.70;2.50;;;40.80;54.70;;;;;;6185985;23;20032;-80
2021/09/04 08:46:32;;;;;;;4.20;3.08;;;40.50;55.00;;;;;;6186411;23;19997;-76
2021/09/04 08:48:59;;;;;;;6.75;2.58;;;41.60;54.10;;;;;;6185920;23;20012;-76
2021/09/04 08:51:25;;;;;;;4.07;2.80;;;41.40;53.10;;;;;;6186120;23;20001;-77
2021/09/04 08:53:51;;;;;;;4.07;2.92;;;40.80;53.90;;;;;;6185882;23;20005;-76
2021/09/04 08:56:17;;;;;;;4.20;2.70;;;40.40;54.20;;;;;;6186177;23;20005;-75
2021/09/04 08:58:42;;;;;;;3.78;3.00;;;40.50;54.20;;;;;;6187100;23;20056;-81
2021/09/04 09:01:19;;;;;;;6.15;2.80;;;40.50;54.10;;;;;;6186147;23;20009;-83
2021/09/04 09:03:49;;;;;;;8.82;2.90;;;41.50;54.00;;;;;;6186188;23;20044;-87
2021/09/04 09:06:35;;;;;;;4.15;2.65;;;42.40;53.10;;;;;;6186444;23;20001;-77
2021/09/04 09:09:21;;;;;;;5.88;2.97;;;42.90;52.20;;;;;;6185478;23;20088;-77
2021/09/04 09:11:55;;;;;;;7.10;2.83;;;42.10;53.00;;;;;;6186176;23;20020;-75
2021/09/04 09:14:23;;;;;;;7.88;2.80;;;42.40;52.80;;;;;;6185716;23;20535;-75
2021/09/04 09:16:50;;;;;;;6.70;3.28;;;41.70;52.50;;;;;;6185686;23;19997;-75
2021/09/04 09:19:16;;;;;;;7.35;3.25;;;40.30;53.50;;;;;;6186159;23;20436;-76
2021/09/04 09:21:42;;;;;;;5.90;3.00;;;39.40;54.40;;;;;;6185743;23;20009;-76
2021/09/04 09:24:17;;;;;;;9.20;3.15;;;38.50;55.70;;;;;;6186061;23;20059;-79
2021/09/04 09:26:51;;;;;;;4.45;3.25;;;37.30;57.30;;;;;;6186002;23;20005;-83
2021/09/04 09:29:37;;;;;;;5.28;3.72;;;35.70;58.30;;;;;;6185744;23;20001;-79
2021/09/04 09:32:09;;;;;;;3.30;2.97;;;34.40;60.20;;;;;;6185316;23;20503;-78
2021/09/04 09:34:40;;;;;;;6.15;3.47;;;33.70;61.70;;;;;;6185762;23;20000;-82
2021/09/04 09:37:08;;;;;;;3.83;3.33;;;32.90;62.70;;;;;;6185922;23;20012;-77
2021/09/04 09:39:42;;;;;;;7.28;3.28;;;32.90;63.40;;;;;;6185557;23;20001;-83
2021/09/04 09:42:10;;;;;;;19.65;3.40;;;33.00;68.30;;;;;;6185487;23;20013;-76
2021/09/04 09:44:37;;;;;;;11.25;4.15;;;32.80;67.90;;;;;;6185968;23;20060;-75
2021/09/04 09:47:05;;;;;;;7.45;3.63;;;32.90;67.70;;;;;;6185849;23;20009;-82
2021/09/04 09:49:43;;;;;;;9.02;3.60;;;32.80;67.00;;;;;;6185332;23;20033;-77
2021/09/04 09:52:11;;;;;;;10.45;4.15;;;32.30;69.60;;;;;;6185492;23;20065;-81
2021/09/04 09:54:38;;;;;;;5.47;3.88;;;31.70;70.60;;;;;;6185429;23;19997;-78
2021/09/04 09:57:06;;;;;;;5.97;3.75;;;31.40;73.50;;;;;;6185665;23;20436;-80
2021/09/04 09:59:32;;;;;;;5.70;3.88;;;31.20;71.70;;;;;;6185552;23;20001;-75
2021/09/04 10:02:06;;;;;;;10.23;4.40;;;31.10;72.50;;;;;;6185418;23;20013;-81
2021/09/04 10:04:34;;;;;;;4.80;3.67;;;31.10;73.50;;;;;;6185931;23;19997;-79
2021/09/04 10:07:02;;;;;;;6.72;4.32;;;31.30;73.90;;;;;;6188008;23;20424;-75
2021/09/04 10:09:29;;;;;;;8.25;4.10;;;31.40;73.30;;;;;;6185046;23;20092;-76
2021/09/04 10:11:55;;;;;;;19.00;4.20;;;31.60;72.60;;;;;;6186052;23;20305;-78
2021/09/04 10:14:22;;;;;;;7.28;4.20;;;31.70;72.40;;;;;;6184795;23;20072;-76
2021/09/04 10:16:53;;;;;;;11.10;3.70;;;31.60;72.70;;;;;;6185351;23;20001;-81
2021/09/04 10:19:22;;;;;;;4.22;3.80;;;31.70;72.90;;;;;;6186140;23;20002;-76
2021/09/04 10:21:57;;;;;;;8.65;4.50;;;31.50;72.10;;;;;;6185908;23;20057;-79
2021/09/04 10:24:42;;;;;;;8.82;4.22;;;31.30;72.70;;;;;;6185867;23;20004;-76
2021/09/04 10:27:11;;;;;;;5.85;3.72;;;31.40;73.30;;;;;;6187793;23;20389;-75
2021/09/04 10:29:45;;;;;;;6.18;3.60;;;31.40;72.20;;;;;;6187281;23;20544;-81
2021/09/04 10:32:18;;;;;;;11.35;3.92;;;31.30;72.10;;;;;;6186994;23;20001;-75
2021/09/04 10:34:46;;;;;;;6.00;3.60;;;31.00;72.00;;;;;;6187214;23;20004;-76
2021/09/04 10:37:11;;;;;;;8.43;4.20;;;30.90;72.60;;;;;;6187815;23;19997;-74
2021/09/04 10:39:51;;;;;;;11.20;4.43;;;30.70;72.90;;;;;;6187659;23;20012;-75
2021/09/04 10:42:21;;;;;;;6.95;4.38;;;30.50;73.90;;;;;;6186963;23;20087;-75
2021/09/04 10:44:58;;;;;;;9.40;3.80;;;30.50;74.40;;;;;;6187048;23;19997;-75
2021/09/04 10:47:24;;;;;;;5.65;4.00;;;30.40;74.60;;;;;;6187463;23;20001;-75
2021/09/04 10:49:56;;;;;;;6.45;4.13;;;30.60;74.30;;;;;;6187555;23;20327;-75
2021/09/04 10:53:01;;;;;;;12.77;3.90;;;30.60;73.50;;;;;;6187240;23;20327;-75
2021/09/04 10:55:36;;;;;;;16.17;4.25;;;30.30;74.80;;;;;;6113898;23;20443;-75
2021/09/04 10:58:09;;;;;;;9.32;3.85;;;30.00;77.00;;;;;;6186879;23;19997;-75
2021/09/04 11:00:43;;;;;;;7.50;3.88;;;29.70;78.10;;;;;;6186911;23;20004;-89
2021/09/04 11:03:14;;;;;;;10.50;3.90;;;29.60;78.10;;;;;;6187014;23;20020;-75
2021/09/04 11:06:05;;;;;;;4.43;4.00;;;29.50;78.20;;;;;;6187345;23;20051;-74
2021/09/04 11:08:42;;;;;;;5.45;3.85;;;29.50;77.70;;;;;;6182553;23;20028;-75
2021/09/04 11:11:41;;;;;;;5.60;3.78;;;29.40;78.00;;;;;;6187440;23;20005;-76
2021/09/04 11:14:21;;;;;;;5.88;4.15;;;29.50;78.00;;;;;;6186832;23;20001;-78
2021/09/04 11:16:54;;;;;;;5.82;3.72;;;29.60;77.80;;;;;;6187318;23;20328;-78
2021/09/04 11:19:23;;;;;;;5.18;3.40;;;29.50;77.90;;;;;;6188085;23;20136;-75
2021/09/04 11:22:01;;;;;;;5.10;4.20;;;29.40;77.10;;;;;;6187610;23;20013;-78
2021/09/04 11:24:31;;;;;;;8.57;3.70;;;29.30;77.70;;;;;;6188055;23;20310;-85
2021/09/04 11:26:58;;;;;;;5.25;3.95;;;29.40;77.90;;;;;;6187408;23;20330;-79
2021/09/04 11:29:25;;;;;;;10.20;4.28;;;29.40;77.70;;;;;;6186858;23;20410;-82
2021/09/04 11:32:00;;;;;;;5.45;3.65;;;29.40;77.50;;;;;;6187140;23;20451;-88
2021/09/04 11:34:48;;;;;;;11.10;4.57;;;29.30;77.80;;;;;;6186594;23;20501;-77
2021/09/04 11:37:22;;;;;;;5.63;3.78;;;29.30;78.80;;;;;;6187215;23;20001;-74
2021/09/04 11:39:49;;;;;;;13.50;4.03;;;29.30;80.00;;;;;;6186747;23;20016;-79
2021/09/04 11:42:17;;;;;;;4.70;3.90;;;29.10;80.30;;;;;;6186684;23;20016;-86
2021/09/04 11:44:52;;;;;;;10.02;3.72;;;29.00;80.10;;;;;;6187200;23;20428;-83
2021/09/04 11:47:18;;;;;;;5.40;3.53;;;29.00;80.70;;;;;;6186758;23;20008;-77
2021/09/04 11:49:46;;;;;;;6.22;4.15;;;28.90;81.00;;;;;;6186913;23;20008;-87
2021/09/04 11:52:28;;;;;;;6.35;3.95;;;28.60;81.80;;;;;;6187022;23;20023;-75
2021/09/04 11:55:14;;;;;;;11.13;4.10;;;28.40;81.80;;;;;;6186809;23;20510;-77
2021/09/04 11:57:42;;;;;;;6.68;4.10;;;28.40;83.00;;;;;;6185973;23;20001;-76
2021/09/04 12:00:13;;;;;;;10.20;4.10;;;28.50;82.80;;;;;;6186494;23;20009;-78
2021/09/04 12:02:56;;;;;;;6.47;3.90;;;28.60;82.20;;;;;;6186763;23;20490;-76
2021/09/04 12:05:33;;;;;;;7.47;3.10;;;28.70;81.90;;;;;;6186439;23;20066;-87
2021/09/04 12:08:06;;;;;;;5.53;3.83;;;28.70;83.20;;;;;;6186414;23;20376;-80
2021/09/04 12:10:45;;;;;;;10.55;4.10;;;28.80;82.40;;;;;;6186700;23;20486;-78
2021/09/04 12:13:24;;;;;;;6.30;4.10;;;28.70;82.20;;;;;;6186352;23;20005;-78
2021/09/04 12:15:55;;;;;;;13.68;3.78;;;28.80;83.00;;;;;;6189877;23;20454;-78
2021/09/04 12:18:28;;;;;;;4.60;3.45;;;28.80;81.40;;;;;;6186822;23;20001;-87
2021/09/04 12:20:53;;;;;;;4.82;3.50;;;28.80;81.50;;;;;;6186331;23;20448;-74
2021/09/04 12:23:22;;;;;;;6.18;4.38;;;28.70;82.90;;;;;;6160458;23;20020;-78
2021/09/04 12:26:12;;;;;;;6.22;4.18;;;28.70;82.10;;;;;;6186219;23;20008;-82
2021/09/04 12:28:37;;;;;;;6.63;4.00;;;28.60;82.90;;;;;;6185735;23;20471;-77
2021/09/04 12:31:15;;;;;;;7.03;4.07;;;28.40;83.70;;;;;;6186688;23;19997;-85
2021/09/04 12:33:50;;;;;;;10.68;6.35;;;28.30;83.20;;;;;;6160224;23;20012;-82
2021/09/04 12:36:25;;;;;;;13.98;4.93;;;28.30;84.30;;;;;;6186399;23;20015;-87
2021/09/04 12:38:51;;;;;;;10.32;4.72;;;28.30;84.40;;;;;;6187957;23;19998;-78
2021/09/04 12:41:18;;;;;;;9.82;6.07;;;28.20;85.40;;;;;;6191129;23;20008;-78
2021/09/04 12:43:55;;;;;;;7.63;4.35;;;28.20;84.50;;;;;;6189963;23;20009;-85
2021/09/04 12:46:50;;;;;;;12.60;5.50;;;28.20;85.10;;;;;;6187359;23;20024;-79
2021/09/04 12:49:35;;;;;;;8.10;4.60;;;28.30;85.70;;;;;;6186300;23;20009;-78